Time;durP1;ratioP1;P1;durP2;ratioP2;P2;SDS_P1;SDS_P2;PMS_P1;PMS_P2;Temp;Humidity;BMP_temperature;BMP_pressure;BME280_temperature;BME280_humidity;BME280_pressure;Samples;Min_cycle;Max_cycle;Signal;HPM_P1;HPM_P2
2023/06/01 06:01:28;;;;;;;17.98;12.63;;;;;;;19.95;100.00;101135.69;2098867;27;20427;-76
2023/06/01 06:02:50;;;;;;;20.30;12.63;;;;;;;20.13;100.00;101130.00;2101183;28;20098;-77
2023/06/01 06:04:12;;;;;;;19.45;12.60;;;;;;;20.38;100.00;101130.47;2086230;28;20100;-77
2023/06/01 06:05:35;;;;;;;18.25;10.98;;;;;;;20.68;100.00;101130.75;2089942;28;20076;-77
2023/06/01 06:06:57;;;;;;;17.73;11.18;;;;;;;20.96;100.00;101128.38;2088534;28;20045;-77
2023/06/01 06:08:20;;;;;;;19.90;10.88;;;;;;;21.20;100.00;101126.13;2086928;28;20053;-77
2023/06/01 06:09:42;;;;;;;14.10;9.40;;;;;;;21.35;100.00;101123.09;2089876;28;20527;-77
2023/06/01 06:11:05;;;;;;;15.25;10.15;;;;;;;21.45;100.00;101130.03;2088686;28;20048;-75
2023/06/01 06:12:27;;;;;;;15.32;9.73;;;;;;;21.52;100.00;101126.28;2083068;28;20591;-75
2023/06/01 06:13:49;;;;;;;;;;;;;;;21.54;100.00;101124.41;2092838;28;20090;-75
2023/06/01 06:15:12;;;;;;;21.30;10.48;;;;;;;21.62;100.00;101126.94;2086837;28;20115;-75
2023/06/01 06:16:36;;;;;;;16.60;9.55;;;;;;;21.72;100.00;101117.75;2081534;28;20501;-75
2023/06/01 06:17:59;;;;;;;14.85;8.98;;;;;;;21.81;100.00;101122.88;2082099;28;20131;-74
2023/06/01 06:19:21;;;;;;;15.73;9.63;;;;;;;21.85;100.00;101124.56;2081500;28;20049;-75
2023/06/01 06:20:45;;;;;;;14.23;8.85;;;;;;;21.88;100.00;101120.00;2091528;28;20044;-75
2023/06/01 06:22:08;;;;;;;15.63;8.73;;;;;;;21.92;100.00;101126.19;2085420;28;20725;-75
2023/06/01 06:23:32;;;;;;;16.45;9.05;;;;;;;22.00;100.00;101126.00;2075495;28;20068;-74
2023/06/01 06:24:54;;;;;;;16.98;9.23;;;;;;;22.10;100.00;101119.47;2079043;28;20057;-75
2023/06/01 06:26:17;;;;;;;15.27;9.23;;;;;;;;;;2086941;28;20037;-75
2023/06/01 06:27:38;;;;;;;14.10;8.75;;;;;;;22.31;100.00;101101.91;2090987;28;20049;-75
2023/06/01 06:29:00;;;;;;;14.45;7.97;;;;;;;22.35;100.00;101099.06;2081483;28;20076;-75
2023/06/01 06:30:24;;;;;;;14.07;8.88;;;;;;;22.36;100.00;101099.94;2078101;28;21628;-75
2023/06/01 06:31:49;;;;;;;14.05;8.60;;;;;;;22.38;100.00;101099.00;2094492;28;20635;-75
2023/06/01 06:33:11;;;;;;;13.93;7.70;;;;;;;22.54;100.00;101089.56;2089413;28;20053;-75
2023/06/01 06:34:35;;;;;;;14.80;8.18;;;;;;;22.70;100.00;101087.31;2075915;28;20084;-76
2023/06/01 06:35:57;;;;;;;15.82;7.82;;;;;;;22.86;100.00;101087.75;2092134;28;20111;-75
2023/06/01 06:37:20;;;;;;;18.52;7.60;;;;;;;23.01;100.00;101076.53;2090149;28;20059;-75
2023/06/01 06:38:43;;;;;;;13.13;7.05;;;;;;;23.16;100.00;101068.00;2078763;28;20045;-76
2023/06/01 06:40:06;;;;;;;12.70;6.72;;;;;;;23.30;100.00;101062.16;2094287;28;20051;-75
2023/06/01 06:41:29;;;;;;;11.60;6.82;;;;;;;23.41;100.00;101052.81;2086751;28;20052;-75
2023/06/01 06:42:52;;;;;;;11.35;6.78;;;;;;;23.54;100.00;101036.25;2098063;28;20040;-76
2023/06/01 06:44:15;;;;;;;13.73;7.05;;;;;;;23.65;100.00;101031.38;2084583;28;20045;-76
2023/06/01 06:45:38;;;;;;;10.75;6.10;;;;;;;23.73;100.00;101024.78;2094073;28;20043;-75
2023/06/01 06:47:03;;;;;;;10.93;6.25;;;;;;;23.82;100.00;101011.00;2080913;28;20096;-75
2023/06/01 06:48:25;;;;;;;11.10;5.90;;;;;;;23.87;100.00;101002.75;2080373;28;20150;-75
2023/06/01 06:49:48;;;;;;;12.68;6.32;;;;;;;23.89;100.00;100998.19;2086786;28;20135;-75
2023/06/01 06:51:11;;;;;;;13.25;5.78;;;;;;;23.88;100.00;100993.72;2074585;28;20042;-75
2023/06/01 06:52:34;;;;;;;11.07;6.07;;;;;;;23.79;100.00;100983.25;2080124;28;20052;-75
2023/06/01 06:53:57;;;;;;;9.07;5.68;;;;;;;23.82;100.00;100980.47;2082821;28;20045;-76
2023/06/01 06:55:20;;;;;;;11.77;6.38;;;;;;;23.79;100.00;100975.16;2087790;28;20056;-75
2023/06/01 06:56:41;;;;;;;11.65;6.45;;;;;;;23.79;100.00;100975.16;2083796;28;20045;-75
2023/06/01 06:58:04;;;;;;;16.13;5.78;;;;;;;23.81;100.00;100974.19;2089147;28;20057;-75
2023/06/01 06:59:27;;;;;;;11.27;6.40;;;;;;;23.88;100.00;100974.84;2094916;28;20453;-75
2023/06/01 07:00:49;;;;;;;11.63;6.00;;;;;;;23.99;100.00;100977.13;2091578;28;20072;-75
2023/06/01 07:02:13;;;;;;;10.80;5.63;;;;;;;24.12;100.00;100970.34;2100240;28;20447;-75
2023/06/01 07:03:38;;;;;;;12.20;5.50;;;;;;;24.20;100.00;100963.78;2092678;28;20111;-75
2023/06/01 07:05:00;;;;;;;14.45;6.03;;;;;;;24.19;100.00;100963.84;2102776;28;20041;-75
2023/06/01 07:06:23;;;;;;;10.73;5.93;;;;;;;24.23;100.00;100962.78;2093497;28;20048;-75
2023/06/01 07:07:46;;;;;;;10.50;5.72;;;;;;;24.31;100.00;100954.38;2107638;28;20048;-75
2023/06/01 07:09:09;;;;;;;11.07;5.95;;;;;;;24.35;100.00;100962.31;2096231;28;20049;-75
2023/06/01 07:10:31;;;;;;;10.68;6.25;;;;;;;24.43;100.00;100954.78;2102667;28;20167;-75
2023/06/01 07:11:53;;;;;;;12.65;6.43;;;;;;;24.50;100.00;100956.31;2093491;28;20057;-76
2023/06/01 07:13:16;;;;;;;11.25;5.90;;;;;;;24.59;100.00;100957.78;2101080;28;20416;-75
2023/06/01 07:14:39;;;;;;;12.05;5.30;;;;;;;24.67;100.00;100958.38;2077209;28;20486;-76
2023/06/01 07:16:01;;;;;;;10.60;5.28;;;;;;;24.75;100.00;100958.06;2083619;28;20556;-76
2023/06/01 07:17:26;;;;;;;12.32;6.03;;;;;;;24.87;100.00;100961.19;2080898;28;20057;-77
2023/06/01 07:18:48;;;;;;;6.65;4.07;;;;;;;24.91;100.00;100962.84;2082964;28;20041;-77
2023/06/01 07:20:11;;;;;;;10.38;5.57;;;;;;;24.90;100.00;100965.59;2081397;28;20053;-76
2023/06/01 07:21:33;;;;;;;10.48;5.82;;;;;;;24.95;100.00;100958.16;2091507;28;20041;-76
2023/06/01 07:22:55;;;;;;;9.07;5.10;;;;;;;25.05;100.00;100964.97;2075651;28;20069;-77
2023/06/01 07:24:19;;;;;;;11.93;5.85;;;;;;;25.15;100.00;100962.75;2083880;28;20049;-76
2023/06/01 07:25:42;;;;;;;11.98;5.30;;;;;;;25.25;100.00;100953.34;2072559;28;20049;-77
2023/06/01 07:27:05;;;;;;;10.95;5.60;;;;;;;25.33;100.00;100948.50;2081947;28;20053;-77
2023/06/01 07:28:27;;;;;;;10.18;5.30;;;;;;;25.35;100.00;100952.88;2086981;28;20079;-77
2023/06/01 07:29:54;;;;;;;10.27;4.32;;;;;;;25.37;100.00;100945.59;2098427;28;20064;-77
2023/06/01 07:31:17;;;;;;;10.98;5.25;;;;;;;25.44;100.00;100942.63;2086490;28;20475;-77
2023/06/01 07:32:41;;;;;;;11.45;4.85;;;;;;;25.47;100.00;100943.34;2091093;28;20112;-77
2023/06/01 07:34:03;;;;;;;12.48;5.80;;;;;;;25.48;100.00;100941.53;2074180;28;20052;-77
2023/06/01 07:35:27;;;;;;;10.40;5.78;;;;;;;25.47;100.00;100935.25;2097244;28;20102;-78
2023/06/01 07:36:50;;;;;;;11.75;6.38;;;;;;;25.46;100.00;100938.03;2089195;28;20045;-77
2023/06/01 07:38:13;;;;;;;9.27;5.53;;;;;;;25.51;100.00;100938.72;2085033;28;20043;-76
2023/06/01 07:39:36;;;;;;;11.30;6.28;;;;;;;25.54;100.00;100938.56;2084153;28;20393;-76
2023/06/01 07:40:57;;;;;;;8.50;4.70;;;;;;;25.57;100.00;100946.56;2084927;28;20094;-76
2023/06/01 07:42:20;;;;;;;10.55;5.18;;;;;;;25.65;100.00;100948.03;2080474;28;20410;-76
2023/06/01 07:43:42;;;;;;;9.80;5.55;;;;;;;25.75;100.00;100946.66;2085057;28;20152;-76
2023/06/01 07:45:08;;;;;;;9.18;5.07;;;;;;;25.70;100.00;100951.41;2086331;28;20479;-76
2023/06/01 07:46:30;;;;;;;10.75;5.72;;;;;;;25.54;100.00;100941.25;2080361;28;20544;-76
2023/06/01 07:47:54;;;;;;;12.35;5.88;;;;;;;25.38;100.00;100947.34;2091908;28;20091;-76
2023/06/01 07:49:17;;;;;;;7.47;4.45;;;;;;;25.22;100.00;100932.72;2080105;28;20041;-76
2023/06/01 07:50:40;;;;;;;12.38;6.43;;;;;;;25.16;100.00;100932.09;2084229;28;20589;-75
2023/06/01 07:52:02;;;;;;;10.55;5.85;;;;;;;25.16;100.00;100937.50;2084226;28;20147;-76
2023/06/01 07:53:25;;;;;;;10.95;5.88;;;;;;;25.24;100.00;100940.75;2076973;28;20076;-76
2023/06/01 07:54:49;;;;;;;10.10;5.90;;;;;;;25.32;100.00;100941.31;2075466;28;20084;-76
2023/06/01 07:56:12;;;;;;;11.65;5.38;;;;;;;25.39;100.00;100948.22;2091455;28;20079;-75
2023/06/01 07:57:34;;;;;;;10.95;5.55;;;;;;;25.51;100.00;100941.41;2072324;28;20434;-76
2023/06/01 07:58:57;;;;;;;13.82;5.90;;;;;;;25.59;100.00;100950.13;2080809;28;20056;-76
2023/06/01 08:00:20;;;;;;;9.15;5.32;;;;;;;25.67;100.00;100947.94;2086120;28;20033;-76
2023/06/01 08:01:43;;;;;;;10.73;5.55;;;;;;;25.72;100.00;100946.81;2086023;28;20401;-75
2023/06/01 08:03:07;;;;;;;10.65;5.03;;;;;;;25.81;100.00;100942.78;2094169;28;20682;-76
2023/06/01 08:04:33;;;;;;;8.90;5.35;;;;;;;25.85;100.00;100946.25;2079705;28;20486;-75
2023/06/01 08:05:57;;;;;;;11.40;5.88;;;;;;;25.83;100.00;100953.56;2076339;28;20061;-75
2023/06/01 08:07:19;;;;;;;8.18;5.65;;;;;;;25.80;100.00;100951.84;2075512;28;20045;-76
2023/06/01 08:08:42;;;;;;;9.02;4.88;;;;;;;25.82;100.00;100951.78;2075210;28;20044;-75
2023/06/01 08:10:05;;;;;;;9.70;5.97;;;;;;;25.82;100.00;100959.91;2091411;28;20121;-75
2023/06/01 08:11:28;;;;;;;11.07;5.78;;;;;;;25.81;100.00;100959.03;2080478;28;20036;-76
2023/06/01 08:12:55;;;;;;;8.68;5.10;;;;;;;25.90;100.00;100955.94;2075351;28;20045;-75
2023/06/01 08:14:18;;;;;;;8.80;5.68;;;;;;;26.02;100.00;100955.38;2101509;28;20071;-76
2023/06/01 08:15:42;;;;;;;14.02;5.53;;;;;;;26.15;100.00;100950.28;2081278;28;20042;-75
2023/06/01 08:17:06;;;;;;;8.07;4.43;;;;;;;26.21;100.00;100939.16;2063169;28;20399;-75
2023/06/01 08:18:30;;;;;;;12.77;5.43;;;;;;;26.25;100.00;100930.00;2079872;28;20045;-75
2023/06/01 08:19:53;;;;;;;6.53;3.78;;;;;;;26.29;100.00;100926.19;2071568;28;20037;-75
2023/06/01 08:21:17;;;;;;;10.63;6.05;;;;;;;26.25;100.00;100923.72;2083145;28;20056;-75
2023/06/01 08:22:41;;;;;;;10.38;5.35;;;;;;;26.23;100.00;100931.88;2077681;28;20060;-75
2023/06/01 08:24:04;;;;;;;10.68;5.40;;;;;;;26.25;100.00;100929.13;2067106;28;20812;-75
2023/06/01 08:25:25;;;;;;;14.30;4.97;;;;;;;26.33;100.00;100924.19;2071087;28;20054;-75
2023/06/01 08:26:48;;;;;;;12.25;4.88;;;;;;;26.43;100.00;100934.56;2080640;28;20056;-75
2023/06/01 08:28:10;;;;;;;9.75;4.88;;;;;;;26.52;100.00;100930.50;2077980;28;20095;-76
2023/06/01 08:29:32;;;;;;;11.35;5.85;;;;;;;26.60;100.00;100939.16;2080133;28;20064;-75
2023/06/01 08:30:56;;;;;;;12.18;5.22;;;;;;;26.66;100.00;100936.16;2095698;28;20045;-75
2023/06/01 08:32:18;;;;;;;9.57;4.57;;;;;;;26.68;100.00;100928.84;2083052;28;20054;-75
2023/06/01 08:33:43;;;;;;;10.23;5.32;;;;;;;26.69;100.00;100925.19;2067188;28;20152;-75
2023/06/01 08:35:06;;;;;;;9.50;4.72;;;;;;;26.63;100.00;100917.34;2088925;28;20056;-76
2023/06/01 08:36:28;;;;;;;10.50;5.70;;;;;;;26.67;100.00;100916.22;2074066;28;20054;-75
2023/06/01 08:37:50;;;;;;;8.45;5.10;;;;;;;26.70;100.00;100907.97;2082028;28;20422;-76
2023/06/01 08:39:23;;;;;;;10.27;5.18;;;;;;;26.75;100.00;100905.91;2093962;28;20488;-75
2023/06/01 08:40:46;;;;;;;10.27;4.78;;;;;;;26.79;100.00;100899.38;2079426;28;20049;-75
2023/06/01 08:42:10;;;;;;;12.15;5.28;;;;;;;26.85;100.00;100890.94;2066814;28;20042;-75
2023/06/01 08:43:38;;;;;;;10.40;5.25;;;;;;;26.88;100.00;100898.94;2085659;28;20044;-75
2023/06/01 08:45:06;;;;;;;9.95;4.82;;;;;;;26.89;100.00;100899.84;2073149;28;20045;-75
2023/06/01 08:46:32;;;;;;;9.40;4.75;;;;;;;26.90;100.00;100891.66;2099940;28;20526;-75
2023/06/01 08:47:55;;;;;;;10.25;5.03;;;;;;;26.92;100.00;100895.13;2089903;28;20075;-75
2023/06/01 08:49:21;;;;;;;9.43;5.53;;;;;;;26.96;100.00;100888.63;2088698;28;20578;-75
2023/06/01 08:50:44;;;;;;;7.65;4.45;;;;;;;27.00;100.00;100888.47;2077777;28;20045;-75
2023/06/01 08:52:08;;;;;;;11.65;4.85;;;;;;;26.98;100.00;100883.09;2074965;28;20111;-75
2023/06/01 08:53:32;;;;;;;9.25;4.85;;;;;;;27.04;100.00;100882.81;2083499;28;20099;-75
2023/06/01 08:54:55;;;;;;;8.20;5.35;;;;;;;27.05;100.00;100881.84;2085911;28;20049;-75
2023/06/01 08:56:18;;;;;;;13.02;4.88;;;;;;;27.05;100.00;100873.72;2087456;28;20037;-75
2023/06/01 08:57:41;;;;;;;9.60;4.90;;;;;;;27.08;100.00;100883.53;2102461;28;20048;-75
2023/06/01 08:59:04;;;;;;;9.93;5.18;;;;;;;27.11;100.00;100884.25;2082281;28;20070;-75
2023/06/01 09:00:27;;;;;;;9.48;5.20;;;;;;;27.20;100.00;100885.63;2077125;28;20045;-75
2023/06/01 09:01:50;;;;;;;10.43;4.78;;;;;;;27.21;100.00;100890.97;2069647;28;20050;-75
2023/06/01 09:03:13;;;;;;;7.97;4.57;;;;;;;27.22;100.00;100886.44;2091957;28;20056;-75
2023/06/01 09:04:41;;;;;;;9.07;5.10;;;;;;;27.21;100.00;100890.97;2085084;28;20037;-75
2023/06/01 09:06:06;;;;;;;8.52;5.57;;;;;;;27.19;100.00;100882.03;2078547;28;20057;-75
2023/06/01 09:07:31;;;;;;;9.00;5.20;;;;;;;27.20;100.00;100877.47;2075960;28;20087;-75
2023/06/01 09:08:53;;;;;;;9.88;4.38;;;;;;;27.24;100.00;100882.66;2085898;28;20045;-75
2023/06/01 09:10:16;;;;;;;6.97;4.28;;;;;;;27.27;100.00;100889.78;2086357;28;20049;-75
2023/06/01 09:11:39;;;;;;;9.32;4.30;;;;;;;27.33;100.00;100889.44;2093249;28;20396;-75
2023/06/01 09:13:01;;;;;;;7.82;4.13;;;;;;;27.45;100.00;100887.94;2079981;28;20041;-75
2023/06/01 09:14:26;;;;;;;12.32;4.47;;;;;;;27.48;100.00;100883.25;2077161;28;20065;-74
2023/06/01 09:15:53;;;;;;;8.70;4.30;;;;;;;27.44;100.00;100886.19;2077855;28;20041;-75
2023/06/01 09:17:22;;;;;;;8.27;4.68;;;;;;;27.42;100.00;100886.28;2076205;28;20083;-74
2023/06/01 09:18:55;;;;;;;10.98;4.55;;;;;;;27.41;100.00;100881.81;2076306;28;20045;-75
2023/06/01 09:20:25;;;;;;;10.05;4.70;;;;;;;27.34;100.00;100880.38;2069946;28;20050;-75
2023/06/01 09:21:59;;;;;;;7.82;3.78;;;;;;;27.34;100.00;100877.66;2096656;28;20036;-75
2023/06/01 09:23:25;;;;;;;11.88;4.90;;;;;;;27.31;100.00;100884.09;2081015;28;20049;-75
2023/06/01 09:24:57;;;;;;;9.55;3.92;;;;;;;27.31;100.00;100878.66;2082881;28;20139;-74
2023/06/01 09:26:28;;;;;;;8.93;4.38;;;;;;;27.26;100.00;100879.88;2070101;28;20149;-75
2023/06/01 09:27:51;;;;;;;7.90;3.95;;;;;;;27.26;100.00;100874.44;2071068;28;20044;-74
2023/06/01 09:29:13;;;;;;;7.43;3.95;;;;;;;27.21;96.35;100872.00;2083465;28;20052;-74
2023/06/01 09:30:43;;;;;;;10.48;4.47;;;;;;;27.15;94.99;100869.59;2083796;28;20091;-75
2023/06/01 09:32:06;;;;;;;8.05;4.10;;;;;;;27.16;93.56;100871.34;2078581;28;20544;-76
2023/06/01 09:33:28;;;;;;;11.27;3.97;;;;;;;27.23;91.15;100866.50;2082904;28;20481;-75
2023/06/01 09:34:51;;;;;;;9.50;4.05;;;;;;;27.25;89.97;100867.28;2085594;28;20490;-75
2023/06/01 09:36:25;;;;;;;7.35;3.67;;;;;;;27.24;87.82;100868.25;2082499;28;20047;-75
2023/06/01 09:37:57;;;;;;;8.20;4.57;;;;;;;27.26;91.54;100856.34;2071726;28;20060;-75
2023/06/01 09:39:21;;;;;;;8.63;4.28;;;;;;;27.34;92.54;100853.25;2078987;28;20754;-76
2023/06/01 09:40:57;;;;;;;10.32;4.05;;;;;;;27.42;88.64;100848.31;2102504;28;20044;-75
2023/06/01 09:42:32;;;;;;;9.70;4.55;;;;;;;27.53;88.26;100854.06;2087001;28;20057;-75
2023/06/01 09:43:55;;;;;;;7.78;4.20;;;;;;;27.61;88.03;100846.41;2094549;28;20048;-74
2023/06/01 09:45:20;;;;;;;8.32;3.60;;;;;;;27.71;84.98;100846.75;2082750;28;20045;-76
2023/06/01 09:46:49;;;;;;;8.48;3.97;;;;;;;27.71;79.99;100847.63;2091637;28;20044;-75
2023/06/01 09:48:18;;;;;;;7.95;4.00;;;;;;;27.72;78.53;100843.97;2078918;28;20087;-76
2023/06/01 09:49:43;;;;;;;9.85;4.13;;;;;;;27.76;80.74;100842.84;2092088;28;20191;-75
2023/06/01 09:51:06;;;;;;;8.48;4.50;;;;;;;27.80;81.04;100840.84;2077280;28;20533;-75
2023/06/01 09:52:30;;;;;;;9.40;4.47;;;;;;;27.87;81.14;100838.66;2080787;28;20147;-76
2023/06/01 09:53:52;;;;;;;8.30;4.35;;;;;;;27.94;82.42;100837.38;2077170;28;20046;-76
2023/06/01 09:55:15;;;;;;;6.32;4.00;;;;;;;27.98;80.28;100844.38;2087993;28;20158;-76
2023/06/01 09:56:44;;;;;;;8.30;3.60;;;;;;;27.96;74.56;100841.75;2074995;28;20049;-76
2023/06/01 09:58:20;;;;;;;8.38;3.90;;;;;;;27.93;73.35;100831.06;2078568;28;20077;-76
2023/06/01 09:59:43;;;;;;;7.38;4.00;;;;;;;27.93;75.53;100833.78;2103074;28;20064;-76
2023/06/01 10:01:08;;;;;;;8.48;4.43;;;;;;;27.94;76.26;100830.13;2084538;28;20049;-76
2023/06/01 10:02:32;;;;;;;7.50;3.85;;;;;;;27.94;77.34;100824.69;2101924;28;20059;-76
2023/06/01 10:03:56;;;;;;;7.70;4.30;;;;;;;27.95;77.00;100826.44;2080748;28;20866;-77
2023/06/01 10:05:18;;;;;;;7.43;4.45;;;;;;;27.95;79.23;100829.16;2082746;28;20048;-74
2023/06/01 10:06:42;;;;;;;7.88;4.05;;;;;;;27.95;81.79;100821.00;2079491;28;20049;-75
2023/06/01 10:08:07;;;;;;;6.88;4.55;;;;;;;28.02;87.27;100824.25;2077363;28;20407;-75
2023/06/01 10:09:30;;;;;;;8.88;4.60;;;;;;;28.05;88.75;100824.94;2074671;28;20049;-74
2023/06/01 10:10:53;;;;;;;8.50;4.20;;;;;;;28.07;88.04;100824.88;2086814;28;20079;-75
2023/06/01 10:12:16;;;;;;;8.50;3.83;;;;;;;28.06;89.70;100826.72;2080064;28;20050;-74
2023/06/01 10:13:39;;;;;;;8.73;5.10;;;;;;;27.99;92.05;100813.56;2071188;28;20064;-74
2023/06/01 10:15:03;;;;;;;8.30;4.13;;;;;;;27.93;95.74;100816.63;2072267;28;20045;-74
2023/06/01 10:16:24;;;;;;;9.88;5.18;;;;;;;27.88;96.43;100813.28;2082697;28;20094;-74
2023/06/01 10:17:49;;;;;;;7.18;4.35;;;;;;;27.80;97.37;100807.41;2077140;28;20053;-74
2023/06/01 10:19:13;;;;;;;10.85;5.45;;;;;;;27.77;98.88;100809.31;2083395;28;20106;-74
2023/06/01 10:20:37;;;;;;;9.27;5.20;;;;;;;27.77;100.00;100814.75;2077494;28;20510;-75
2023/06/01 10:22:00;;;;;;;10.15;5.10;;;;;;;27.78;100.00;100815.63;2084288;28;20041;-74
2023/06/01 10:23:24;;;;;;;9.07;4.38;;;;;;;27.76;100.00;100814.84;2069332;28;20050;-74
2023/06/01 10:24:47;;;;;;;9.90;5.75;;;;;;;27.71;100.00;100820.50;2074375;28;20619;-75
2023/06/01 10:26:16;;;;;;;8.82;4.55;;;;;;;27.69;100.00;100822.44;2082089;28;20103;-75
2023/06/01 10:27:45;;;;;;;9.88;5.32;;;;;;;27.68;100.00;100828.84;2075621;28;20038;-75
2023/06/01 10:29:10;;;;;;;9.27;5.10;;;;;;;27.64;100.00;100819.09;2077781;28;20051;-75
2023/06/01 10:30:33;;;;;;;10.63;5.22;;;;;;;27.64;100.00;100820.91;2091023;28;21190;-75
2023/06/01 10:31:55;;;;;;;8.70;4.80;;;;;;;27.66;100.00;100821.72;2087993;28;20045;-75
2023/06/01 10:33:54;;;;;;;8.48;4.78;;;;;;;27.67;100.00;100816.22;2099675;28;20040;-75
2023/06/01 10:36:04;;;;;;;10.18;4.70;;;;;;;27.64;99.79;100824.50;2069946;28;20046;-77
2023/06/01 10:37:25;;;;;;;8.50;5.22;;;;;;;27.64;100.00;100829.06;2076599;28;20068;-76
2023/06/01 10:38:49;;;;;;;9.07;5.47;;;;;;;27.64;99.89;100832.66;2064947;28;20151;-75
2023/06/01 10:40:21;;;;;;;9.82;6.03;;;;;;;27.61;100.00;100830.13;2096025;28;20048;-75
2023/06/01 10:41:44;;;;;;;9.23;5.72;;;;;;;27.56;100.00;100834.03;2088030;28;20094;-75
2023/06/01 10:43:08;;;;;;;12.15;6.47;;;;;;;27.55;100.00;100827.75;2100546;28;20040;-75
2023/06/01 10:44:50;;;;;;;7.85;4.20;;;;;;;27.57;100.00;100825.78;2081940;28;20083;-75
2023/06/01 10:46:42;;;;;;;10.50;5.57;;;;;;;27.59;100.00;100823.00;2087339;28;20041;-76
2023/06/01 10:48:06;;;;;;;8.07;5.20;;;;;;;27.58;100.00;100816.72;2088658;28;20079;-76
2023/06/01 10:49:57;;;;;;;11.48;5.40;;;;;;;27.53;100.00;100810.66;2083604;28;20084;-75
2023/06/01 10:51:22;;;;;;;10.95;6.13;;;;;;;27.49;100.00;100816.31;2088631;28;20060;-75
2023/06/01 10:52:44;;;;;;;9.20;6.05;;;;;;;27.48;100.00;100820.84;2087351;28;20040;-75
2023/06/01 10:54:31;;;;;;;13.38;6.30;;;;;;;27.58;100.00;100824.84;2065090;28;20057;-76
2023/06/01 10:56:26;;;;;;;9.70;6.18;;;;;;;27.67;100.00;100823.47;2080389;28;20086;-75
2023/06/01 10:57:50;;;;;;;9.35;5.95;;;;;;;27.69;100.00;100827.00;2075055;28;20180;-75
2023/06/01 10:59:13;;;;;;;11.90;5.93;;;;;;;27.71;100.00;100822.34;2091885;28;20064;-75
2023/06/01 11:00:40;;;;;;;14.80;5.85;;;;;;;27.82;100.00;100813.63;2088647;28;20413;-75
2023/06/01 11:02:07;;;;;;;9.32;5.32;;;;;;;27.91;100.00;100813.09;2087192;28;20053;-76
2023/06/01 11:03:46;;;;;;;8.85;5.47;;;;;;;27.98;99.71;100811.81;2079127;28;20045;-75
2023/06/01 11:05:37;;;;;;;11.10;5.10;;;;;;;28.07;97.75;100814.00;2087795;28;20049;-75
2023/06/01 11:07:41;;;;;;;8.60;4.72;;;;;;;28.11;96.88;100813.75;2088692;28;20048;-75
2023/06/01 11:09:05;;;;;;;10.38;5.00;;;;;;;28.05;93.79;100807.78;2078846;28;20072;-75
2023/06/01 11:11:02;;;;;;;12.20;4.95;;;;;;;27.98;88.86;100815.41;2085388;28;20049;-76
2023/06/01 11:12:26;;;;;;;11.50;5.65;;;;;;;27.93;90.71;100813.91;2087039;28;20386;-75
2023/06/01 11:14:11;;;;;;;8.88;5.25;;;;;;;27.86;79.80;100810.66;2089624;28;20080;-75
2023/06/01 11:15:33;;;;;;;12.77;5.82;;;;;;;27.81;82.27;100815.47;2079456;28;20076;-75
2023/06/01 11:16:56;;;;;;;15.73;5.68;;;;;;;27.82;86.54;100816.34;2083448;28;20061;-75
2023/06/01 11:18:44;;;;;;;11.30;5.85;;;;;;;27.85;88.88;100821.59;2102337;28;20416;-75
2023/06/01 11:20:11;;;;;;;9.60;5.53;;;;;;;27.86;90.82;100823.34;2082252;28;20136;-76
2023/06/01 11:21:39;;;;;;;10.43;5.93;;;;;;;27.92;93.11;100823.00;2071032;28;20042;-75
2023/06/01 11:23:02;;;;;;;9.13;5.03;;;;;;;27.96;93.49;100820.03;2093823;28;20452;-75
2023/06/01 11:24:26;;;;;;;9.18;5.50;;;;;;;27.99;91.64;100814.44;2087749;28;20063;-75
2023/06/01 11:25:53;;;;;;;9.25;5.75;;;;;;;28.06;91.81;100813.13;2086197;28;20056;-75
2023/06/01 11:27:16;;;;;;;11.25;5.55;;;;;;;28.14;90.84;100812.75;2089323;28;20032;-75
2023/06/01 11:28:39;;;;;;;9.77;5.93;;;;;;;28.16;88.35;100807.25;2084390;28;20149;-76
2023/06/01 11:30:02;;;;;;;8.68;5.68;;;;;;;28.20;89.43;100811.53;2076739;28;20060;-75
2023/06/01 11:31:25;;;;;;;8.75;5.10;;;;;;;28.20;84.89;100809.69;2087827;28;20040;-75
2023/06/01 11:32:50;;;;;;;9.77;5.25;;;;;;;28.16;78.62;100816.22;2080833;28;20046;-75
2023/06/01 11:34:14;;;;;;;9.70;4.85;;;;;;;28.16;76.99;100797.22;2078624;28;20156;-75
2023/06/01 11:35:36;;;;;;;9.02;4.75;;;;;;;28.18;73.00;100802.56;2085759;28;20385;-75
2023/06/01 11:36:59;;;;;;;9.30;5.50;;;;;;;28.15;72.91;100809.06;2085663;28;20048;-75
2023/06/01 11:38:20;;;;;;;8.77;5.07;;;;;;;28.09;76.45;100812.09;2081296;28;20052;-75
2023/06/01 11:39:43;;;;;;;10.05;4.95;;;;;;;28.00;75.27;100807.19;2073818;28;20041;-74
2023/06/01 11:41:04;;;;;;;7.82;4.90;;;;;;;27.98;80.40;100801.81;2082968;28;20052;-75
2023/06/01 11:42:36;;;;;;;10.57;5.63;;;;;;;28.02;83.54;100803.44;2085513;28;20744;-76
2023/06/01 11:43:59;;;;;;;12.52;5.55;;;;;;;28.00;85.99;100804.47;2070584;28;20046;-75
2023/06/01 11:45:22;;;;;;;11.38;4.88;;;;;;;27.95;88.18;100798.44;2075533;28;20083;-75
2023/06/01 11:46:54;;;;;;;10.32;5.55;;;;;;;27.93;89.99;100797.63;2086250;28;20144;-75
2023/06/01 11:48:17;;;;;;;12.88;5.82;;;;;;;27.94;92.56;100794.81;2088840;28;20041;-75
2023/06/01 11:49:44;;;;;;;13.18;5.75;;;;;;;27.95;96.53;100788.44;2078718;28;20045;-74
2023/06/01 11:51:07;;;;;;;10.98;6.00;;;;;;;27.92;95.22;100791.31;2087173;28;20512;-75
2023/06/01 11:52:30;;;;;;;10.30;5.57;;;;;;;27.88;91.45;100775.28;2088368;28;20548;-75
2023/06/01 11:53:52;;;;;;;8.77;5.35;;;;;;;27.85;89.30;100776.34;2086576;28;20057;-75
2023/06/01 11:55:15;;;;;;;11.43;4.35;;;;;;;27.86;86.53;100760.91;2097778;28;20041;-75
2023/06/01 11:56:39;;;;;;;11.40;5.10;;;;;;;27.86;84.47;100772.66;2075126;28;20096;-75
2023/06/01 11:58:02;;;;;;;9.52;5.05;;;;;;;27.86;82.13;100771.78;2083809;28;20041;-75
2023/06/01 11:59:28;;;;;;;11.23;5.07;;;;;;;27.84;79.44;100770.97;2101649;28;20127;-76
2023/06/01 12:00:49;;;;;;;9.82;5.10;;;;;;;27.83;81.13;100764.66;2075802;28;20057;-75
2023/06/01 12:02:24;;;;;;;8.77;5.32;;;;;;;27.80;81.93;100761.28;2081626;28;20080;-75
2023/06/01 12:03:46;;;;;;;9.73;5.40;;;;;;;27.74;82.99;100763.38;2079656;28;20042;-75
2023/06/01 12:05:10;;;;;;;13.35;5.78;;;;;;;27.71;83.78;100760.81;2100322;28;20522;-74
2023/06/01 12:06:32;;;;;;;10.88;5.90;;;;;;;27.69;84.10;100759.16;2082960;28;20055;-76
2023/06/01 12:07:55;;;;;;;10.55;5.28;;;;;;;27.68;86.23;100757.41;2077845;28;20053;-76
2023/06/01 12:09:17;;;;;;;13.68;5.78;;;;;;;27.67;86.25;100761.06;2083159;28;20045;-76
2023/06/01 12:10:42;;;;;;;11.70;5.28;;;;;;;27.66;87.29;100759.31;2084410;28;20049;-75
2023/06/01 12:12:06;;;;;;;11.68;5.55;;;;;;;27.65;87.63;100766.56;2094786;28;20052;-74
2023/06/01 12:13:29;;;;;;;11.43;5.30;;;;;;;27.66;87.55;100772.88;2077913;28;20046;-75
2023/06/01 12:14:53;;;;;;;7.93;4.68;;;;;;;27.65;87.96;100758.44;2075183;28;20500;-75
2023/06/01 12:16:16;;;;;;;12.10;6.03;;;;;;;27.67;88.58;100755.66;2084202;28;20049;-75
2023/06/01 12:17:49;;;;;;;12.95;5.82;;;;;;;27.64;89.26;100758.50;2085955;28;20045;-76
2023/06/01 12:19:11;;;;;;;9.25;5.28;;;;;;;27.61;89.98;100759.59;2087596;28;20429;-75
2023/06/01 12:20:35;;;;;;;12.15;5.18;;;;;;;27.64;90.45;100747.66;2083846;28;20531;-75
2023/06/01 12:21:59;;;;;;;10.43;5.25;;;;;;;27.67;90.15;100751.09;2086311;28;20045;-75
2023/06/01 12:23:22;;;;;;;9.23;5.10;;;;;;;27.65;89.96;100744.88;2088109;28;20405;-75
2023/06/01 12:24:45;;;;;;;11.60;5.85;;;;;;;27.63;90.50;100737.81;2077928;28;20049;-76
2023/06/01 12:26:08;;;;;;;12.77;5.35;;;;;;;27.61;91.20;100732.44;2073945;28;20042;-76
2023/06/01 12:27:32;;;;;;;10.75;5.28;;;;;;;27.56;91.20;100742.69;2099036;28;20056;-75
2023/06/01 12:28:55;;;;;;;9.85;5.47;;;;;;;27.61;92.33;100742.44;2074475;28;20045;-76
2023/06/01 12:30:26;;;;;;;12.70;6.07;;;;;;;27.64;92.48;100743.13;2074450;28;20046;-75
2023/06/01 12:31:55;;;;;;;10.23;5.28;;;;;;;27.70;91.67;100731.03;2077689;28;20042;-76
2023/06/01 12:33:33;;;;;;;10.50;5.20;;;;;;;27.66;91.95;100733.06;2070110;28;20100;-75